createdAt,value
2023-01-08T00:00:35.367Z,101676.13
2023-01-08T00:03:22.477Z,101679.63
2023-01-08T00:06:10.033Z,101683.97
2023-01-08T00:08:57.128Z,101674.44
2023-01-08T00:11:44.048Z,101672.72
2023-01-08T00:14:31.735Z,101658.72
2023-01-08T00:17:18.596Z,101663.16
2023-01-08T00:20:05.700Z,101668.38
2023-01-08T00:22:52.590Z,101637.81
2023-01-08T00:25:40.690Z,101659.75
2023-01-08T00:28:27.642Z,101661.47
2023-01-08T00:31:14.782Z,101651.03
2023-01-08T00:34:01.967Z,101605.59
2023-01-08T00:36:49.098Z,101653.66
2023-01-08T00:39:36.146Z,101637.06
2023-01-08T00:42:23.166Z,101639.75
2023-01-08T00:45:10.124Z,101640.59
2023-01-08T00:47:57.209Z,101623.19
2023-01-08T00:50:44.554Z,101603.06
2023-01-08T00:53:32.238Z,101622.34
2023-01-08T00:56:23.763Z,101556.88
2023-01-08T00:59:10.948Z,101613.69
2023-01-08T01:01:59.018Z,101618.06
2023-01-08T01:04:46.864Z,101601.56
2023-01-08T01:07:33.769Z,101605.88
2023-01-08T01:10:21.287Z,101606.78
2023-01-08T01:13:08.244Z,101612.00
2023-01-08T01:15:55.208Z,101607.66
2023-01-08T01:18:42.271Z,101608.50
2023-01-08T01:21:37.405Z,101598.97
2023-01-08T01:24:26.613Z,101593.75
2023-01-08T01:27:13.559Z,101594.63
2023-01-08T01:30:00.861Z,101595.47
2023-01-08T01:32:47.794Z,101571.03
2023-01-08T01:35:34.739Z,101594.63
2023-01-08T01:38:21.610Z,101583.28
2023-01-08T01:41:08.485Z,101590.25
2023-01-08T01:44:03.440Z,101536.97
2023-01-08T01:47:00.317Z,101585.00
2023-01-08T01:49:47.677Z,101582.41
2023-01-08T01:52:34.986Z,101575.41
2023-01-08T01:55:24.488Z,101583.25
2023-01-08T01:58:20.333Z,101578.94
2023-01-08T02:01:07.672Z,101544.88
2023-01-08T02:03:58.148Z,101559.78
2023-01-08T02:06:51.499Z,101541.44
2023-01-08T02:09:47.813Z,101561.50
2023-01-08T02:12:41.848Z,101554.56
2023-01-08T02:15:12.804Z,101548.44
2023-01-08T02:17:48.283Z,101544.13
2023-01-08T02:20:22.070Z,101540.59
2023-01-08T02:23:01.102Z,101540.59
2023-01-08T02:25:46.287Z,101531.03
2023-01-08T02:28:15.618Z,101532.78
2023-01-08T02:30:46.014Z,101524.94
2023-01-08T02:33:12.929Z,101528.44
2023-01-08T02:35:48.905Z,101518.88
2023-01-08T02:38:17.956Z,101518.88
2023-01-08T02:41:06.434Z,101514.50
2023-01-08T02:43:43.094Z,101505.81
2023-01-08T02:46:15.130Z,101497.09
2023-01-08T02:48:47.652Z,101496.19
2023-01-08T02:51:40.499Z,101512.78
2023-01-08T02:54:13.148Z,101517.09
2023-01-08T02:56:45.148Z,101511.03
2023-01-08T02:59:14.393Z,101504.94
2023-01-08T03:01:42.601Z,101509.25
2023-01-08T03:04:22.157Z,101505.81
2023-01-08T03:06:50.380Z,101504.06
2023-01-08T03:09:18.075Z,101487.50
2023-01-08T03:12:20.852Z,101495.38
2023-01-08T03:15:26.595Z,101497.97
2023-01-08T03:18:19.133Z,101490.97
2023-01-08T03:21:07.558Z,101484.03
2023-01-08T03:23:58.699Z,101484.91
2023-01-08T03:26:47.586Z,101479.69
2023-01-08T03:29:39.107Z,101477.94
2023-01-08T03:32:33.450Z,101478.81
2023-01-08T03:35:22.899Z,101422.97
2023-01-08T03:38:16.569Z,101471.00
2023-01-08T03:41:08.318Z,101460.53
2023-01-08T03:43:55.325Z,101464.88
2023-01-08T03:46:49.514Z,101457.91
2023-01-08T03:49:37.871Z,101453.59
2023-01-08T03:52:24.992Z,101433.50
2023-01-08T03:55:12.450Z,101447.50
2023-01-08T03:57:39.366Z,101433.53
2023-01-08T04:00:06.990Z,101438.78
2023-01-08T04:02:33.994Z,101430.97
2023-01-08T04:05:01.165Z,101439.66
2023-01-08T04:07:28.180Z,101438.78
2023-01-08T04:09:55.037Z,101438.78
2023-01-08T04:12:21.988Z,101437.91
2023-01-08T04:14:48.975Z,101429.22
2023-01-08T04:17:36.000Z,101430.94
2023-01-08T04:20:23.466Z,101430.94
2023-01-08T04:23:10.465Z,101357.66
2023-01-08T04:25:57.951Z,101430.97
2023-01-08T04:28:45.000Z,101424.00
2023-01-08T04:31:31.998Z,101420.53
2023-01-08T04:34:18.944Z,101417.91
2023-01-08T04:37:05.953Z,101412.69
2023-01-08T04:39:52.985Z,101421.41
2023-01-08T04:42:39.949Z,101416.19
2023-01-08T04:45:27.810Z,101411.81
2023-01-08T04:48:18.932Z,101402.25
2023-01-08T04:51:05.986Z,101390.06
2023-01-08T04:53:57.997Z,101401.38
2023-01-08T04:56:45.054Z,101393.50
2023-01-08T04:59:31.958Z,101395.31
2023-01-08T05:02:19.254Z,101395.31
2023-01-08T05:05:08.040Z,101392.72
2023-01-08T05:07:55.052Z,101397.03
2023-01-08T05:10:42.059Z,101387.47
2023-01-08T05:13:29.122Z,101390.09
2023-01-08T05:16:20.687Z,101373.53
2023-01-08T05:19:07.884Z,101381.41
2023-01-08T05:21:54.843Z,101358.69
2023-01-08T05:24:42.297Z,101375.31
2023-01-08T05:27:29.299Z,101378.78
2023-01-08T05:30:16.289Z,101379.69
2023-01-08T05:33:03.306Z,101372.69
2023-01-08T05:35:50.308Z,101376.16
2023-01-08T05:38:37.277Z,101369.22
2023-01-08T05:41:24.760Z,101366.63
2023-01-08T05:44:11.602Z,101354.44
2023-01-08T05:46:58.526Z,101358.84
2023-01-08T05:49:45.549Z,101357.06
2023-01-08T05:52:32.473Z,101364.91
2023-01-08T05:55:19.630Z,101349.22
2023-01-08T05:58:06.622Z,101357.13
2023-01-08T06:00:54.595Z,101347.53
2023-01-08T06:03:42.820Z,101356.25
2023-01-08T06:06:30.839Z,101359.75
2023-01-08T06:09:17.847Z,101351.94
2023-01-08T06:12:04.870Z,101347.56
2023-01-08T06:14:52.183Z,101349.31
2023-01-08T06:17:39.089Z,101347.56
2023-01-08T06:20:26.598Z,101338.91
2023-01-08T06:23:13.981Z,101342.34
2023-01-08T06:26:01.049Z,101311.00
2023-01-08T06:28:48.247Z,101339.75
2023-01-08T06:31:35.316Z,101350.22
2023-01-08T06:34:22.239Z,101340.63
2023-01-08T06:37:09.286Z,101342.41
2023-01-08T06:39:56.145Z,101342.41
2023-01-08T06:42:43.337Z,101326.75
2023-01-08T06:45:30.842Z,101328.53
2023-01-08T06:48:23.358Z,101265.72
2023-01-08T06:51:10.493Z,101321.56
2023-01-08T06:53:57.596Z,101328.53
2023-01-08T06:56:53.401Z,101316.34
2023-01-08T06:59:41.781Z,101312.00
2023-01-08T07:02:38.650Z,101331.16
2023-01-08T07:05:26.094Z,101307.66
2023-01-08T07:08:13.226Z,101325.06
2023-01-08T07:11:00.414Z,101329.41
2023-01-08T07:13:47.377Z,101328.56
2023-01-08T07:16:35.228Z,101315.50
2023-01-08T07:19:22.115Z,101317.25
2023-01-08T07:22:09.020Z,101325.97
2023-01-08T07:24:55.867Z,101320.75
2023-01-08T07:27:42.990Z,101297.25
2023-01-08T07:30:30.857Z,101309.44
2023-01-08T07:33:19.548Z,101309.47
2023-01-08T07:36:16.332Z,101302.50
2023-01-08T07:39:03.597Z,101290.34
2023-01-08T07:41:50.613Z,101291.19
2023-01-08T07:44:37.765Z,101293.81
2023-01-08T07:47:24.711Z,101288.59
2023-01-08T07:50:11.635Z,101286.88
2023-01-08T07:52:58.472Z,101291.22
2023-01-08T07:55:45.773Z,101292.09
2023-01-08T07:58:34.270Z,101278.19
2023-01-08T08:01:22.151Z,101286.00
2023-01-08T08:04:09.208Z,101292.09
2023-01-08T08:06:56.110Z,101296.44
2023-01-08T08:09:43.169Z,101296.44
2023-01-08T08:12:30.092Z,101286.00
2023-01-08T08:15:17.091Z,101275.56
2023-01-08T08:18:08.398Z,101287.78
2023-01-08T08:20:55.562Z,101290.38
2023-01-08T08:23:42.521Z,101292.09
2023-01-08T08:26:29.429Z,101290.38
2023-01-08T08:29:16.453Z,101291.22
2023-01-08T08:32:03.423Z,101286.88
2023-01-08T08:34:51.336Z,101292.13
2023-01-08T08:37:38.387Z,101307.78
2023-01-08T08:40:25.947Z,101285.16
2023-01-08T08:43:21.433Z,101293.84
2023-01-08T08:46:08.555Z,101286.00
2023-01-08T08:48:55.375Z,101290.38
2023-01-08T08:51:42.377Z,101293.00
2023-01-08T08:54:30.871Z,101293.84
2023-01-08T08:57:17.833Z,101294.72
2023-01-08T09:00:04.780Z,101285.16
2023-01-08T09:02:51.706Z,101288.63
2023-01-08T09:05:38.758Z,101288.63
2023-01-08T09:08:25.992Z,101297.31
2023-01-08T09:11:14.392Z,101292.09
2023-01-08T09:14:01.549Z,101276.44
2023-01-08T09:16:48.618Z,101292.97
2023-01-08T09:19:35.625Z,101291.22
2023-01-08T09:22:23.120Z,101286.00
2023-01-08T09:25:10.079Z,101282.53
2023-01-08T09:27:57.104Z,101289.50
2023-01-08T09:30:43.970Z,101275.53
2023-01-08T09:33:30.917Z,101282.53
2023-01-08T09:36:17.894Z,101283.41
2023-01-08T09:39:05.290Z,101275.53
2023-01-08T09:41:55.100Z,101282.53
2023-01-08T09:44:48.520Z,101279.06
2023-01-08T09:47:58.438Z,101272.94
2023-01-08T09:50:47.368Z,101272.94
2023-01-08T09:53:37.467Z,101276.44
2023-01-08T09:56:30.885Z,101271.22
2023-01-08T09:59:23.715Z,101229.41
2023-01-08T10:02:12.858Z,101268.59
2023-01-08T10:05:00.503Z,101236.38
2023-01-08T10:07:50.395Z,101269.50
2023-01-08T10:10:40.819Z,101252.06
2023-01-08T10:13:31.410Z,101270.34
2023-01-08T10:16:18.834Z,101214.59
2023-01-08T10:19:06.066Z,101263.41
2023-01-08T10:22:01.239Z,101262.50
2023-01-08T10:24:53.438Z,101250.34
2023-01-08T10:27:43.300Z,101251.22
2023-01-08T10:30:36.737Z,101246.00
2023-01-08T10:33:27.310Z,101244.25
2023-01-08T10:36:23.577Z,101225.13
2023-01-08T10:39:20.529Z,101236.41
2023-01-08T10:42:08.258Z,101222.53
2023-01-08T10:44:56.446Z,101231.19
2023-01-08T10:47:44.845Z,101237.31
2023-01-08T10:50:42.879Z,101227.75
2023-01-08T10:53:49.039Z,101230.34
2023-01-08T10:56:44.501Z,101225.13
2023-01-08T10:59:39.124Z,101220.75
2023-01-08T11:02:57.454Z,101219.91
2023-01-08T11:06:04.699Z,101210.31
2023-01-08T11:08:51.793Z,101211.22
2023-01-08T11:11:39.611Z,101211.22
2023-01-08T11:14:37.416Z,101212.94
2023-01-08T11:17:30.721Z,101211.22
2023-01-08T11:20:28.086Z,101155.50
2023-01-08T11:23:35.483Z,101200.78
2023-01-08T11:26:34.963Z,101205.13
2023-01-08T11:29:33.734Z,101199.06
2023-01-08T11:32:46.622Z,101189.47
2023-01-08T11:35:39.027Z,101195.56
2023-01-08T11:38:28.363Z,101192.06
2023-01-08T11:41:40.040Z,101182.50
2023-01-08T11:44:42.352Z,101178.19
2023-01-08T11:48:07.393Z,101175.56
2023-01-08T11:51:05.253Z,101176.41
2023-01-08T11:54:14.304Z,101160.75
2023-01-08T11:57:22.904Z,101161.63
2023-01-08T12:00:21.940Z,101162.53
2023-01-08T12:03:14.290Z,101161.63
2023-01-08T12:06:01.054Z,101159.03
2023-01-08T12:09:14.948Z,101149.47
2023-01-08T12:12:34.057Z,101159.03
2023-01-08T12:15:28.022Z,101152.94
2023-01-08T12:18:28.082Z,101145.97
2023-01-08T12:21:38.023Z,101145.09
2023-01-08T12:25:01.213Z,101144.25
2023-01-08T13:49:09.940Z,100981.66
2023-01-08T13:51:44.236Z,101087.72
2023-01-08T13:54:14.984Z,101085.09
2023-01-08T13:56:44.196Z,101078.13
2023-01-08T13:59:31.131Z,101078.13
2023-01-08T14:02:01.349Z,101058.13
2023-01-08T14:04:28.494Z,101046.81
2023-01-08T14:07:12.839Z,100910.41
2023-01-08T14:09:39.753Z,101054.63
2023-01-08T14:12:14.593Z,101039.84
2023-01-08T14:14:47.737Z,101038.13
2023-01-08T14:17:20.441Z,101056.38
2023-01-08T14:19:47.913Z,101061.59
2023-01-08T14:22:21.612Z,101042.44
2023-01-08T14:25:17.490Z,101055.47
2023-01-08T14:28:15.772Z,101051.13
2023-01-08T14:30:49.066Z,101046.75
2023-01-08T14:33:17.165Z,101054.59
2023-01-08T14:35:44.423Z,101053.75
2023-01-08T14:38:14.619Z,101054.59
2023-01-08T14:40:51.236Z,101051.97
2023-01-08T14:43:20.886Z,101040.69
2023-01-08T14:45:57.880Z,101017.19
2023-01-08T14:48:41.816Z,101028.47
2023-01-08T14:51:13.000Z,101017.16
2023-01-08T14:53:46.257Z,101017.19
2023-01-08T14:56:17.638Z,101026.75
2023-01-08T14:58:46.608Z,101025.00
2023-01-08T15:01:27.671Z,101021.50
2023-01-08T15:04:18.381Z,101024.09
2023-01-08T15:06:46.195Z,101022.38
2023-01-08T15:09:39.446Z,101018.00
2023-01-08T15:12:07.909Z,101020.63
2023-01-08T15:14:36.963Z,101036.31
2023-01-08T15:17:20.137Z,101015.41
2023-01-08T15:19:53.728Z,101023.25
2023-01-08T15:22:25.035Z,101012.81
2023-01-08T15:24:55.816Z,101017.13
2023-01-08T15:27:22.871Z,101013.66
2023-01-08T15:30:03.632Z,101019.75
2023-01-08T15:32:37.229Z,101001.50
2023-01-08T15:35:18.734Z,101024.97
2023-01-08T15:37:45.936Z,101015.41
2023-01-08T15:40:12.990Z,100978.03
2023-01-08T15:42:58.839Z,100999.72
2023-01-08T15:45:32.383Z,101015.41
2023-01-08T15:47:59.759Z,101009.28
2023-01-08T15:50:27.940Z,101014.50
2023-01-08T15:52:57.475Z,101010.16
2023-01-08T15:55:25.255Z,100995.38
2023-01-08T15:57:52.279Z,100979.75
2023-01-08T16:00:22.517Z,101003.19
2023-01-08T16:02:51.797Z,101008.41
2023-01-08T16:05:20.618Z,101012.78
2023-01-08T16:07:47.741Z,101015.41
2023-01-08T16:10:16.117Z,100984.09
2023-01-08T16:12:46.057Z,101008.41
2023-01-08T16:15:14.608Z,101005.78
2023-01-08T16:17:42.267Z,101000.56
2023-01-08T16:20:10.426Z,101000.56
2023-01-08T16:22:37.395Z,101006.69
2023-01-08T16:25:05.176Z,100990.13
2023-01-08T16:27:33.042Z,100992.75
2023-01-08T16:30:20.376Z,100991.88
2023-01-08T16:33:11.388Z,100983.19
2023-01-08T16:35:58.345Z,100994.50
2023-01-08T16:38:45.471Z,100948.44
2023-01-08T16:41:32.349Z,100975.34
2023-01-08T16:44:19.318Z,100980.56
2023-01-08T16:47:07.212Z,100983.19
2023-01-08T16:49:54.062Z,100979.69
2023-01-08T16:52:41.056Z,100964.00
2023-01-08T16:55:28.408Z,100973.59
2023-01-08T16:58:15.462Z,100952.72
2023-01-08T17:01:02.396Z,100970.09
2023-01-08T17:03:49.499Z,100981.44
2023-01-08T17:06:36.902Z,100979.66
2023-01-08T17:09:24.519Z,100966.63
2023-01-08T17:12:11.341Z,100963.16
2023-01-08T17:14:58.278Z,100972.72
2023-01-08T17:17:45.340Z,100967.47
2023-01-08T17:20:32.559Z,100934.44
2023-01-08T17:23:19.778Z,100958.78
2023-01-08T17:26:06.798Z,100966.59
2023-01-08T17:28:53.635Z,100957.91
2023-01-08T17:31:41.654Z,100912.78
2023-01-08T17:34:33.207Z,100971.81
2023-01-08T17:37:21.698Z,100969.19
2023-01-08T17:40:13.369Z,100950.94
2023-01-08T17:43:00.309Z,100976.16
2023-01-08T17:45:47.292Z,100972.66
2023-01-08T17:48:34.207Z,100970.06
2023-01-08T17:51:25.920Z,100970.06
2023-01-08T17:54:12.927Z,100968.31
2023-01-08T17:56:59.905Z,100977.00
2023-01-08T17:59:47.009Z,100970.03
2023-01-08T18:02:36.039Z,100964.81
2023-01-08T18:05:23.128Z,100964.81
2023-01-08T18:08:10.176Z,100957.84
2023-01-08T18:10:57.997Z,100950.84
2023-01-08T18:13:44.903Z,100883.16
2023-01-08T18:16:33.982Z,100947.38
2023-01-08T18:19:21.245Z,100943.88
2023-01-08T18:22:08.365Z,100946.53
2023-01-08T18:24:55.462Z,100944.75
2023-01-08T18:27:42.409Z,100944.75
2023-01-08T18:30:29.947Z,100940.41
2023-01-08T18:33:16.931Z,100946.47
2023-01-08T18:36:03.914Z,100937.75
2023-01-08T18:38:50.874Z,100917.81
2023-01-08T18:41:39.735Z,100943.84
2023-01-08T18:44:28.627Z,100909.16
2023-01-08T18:47:15.488Z,100907.38
2023-01-08T18:50:02.383Z,100935.16
2023-01-08T18:52:49.989Z,100930.78
2023-01-08T18:55:37.076Z,100942.09
2023-01-08T18:58:24.164Z,100925.56
2023-01-08T19:01:11.176Z,100927.31
2023-01-08T19:03:58.053Z,100852.69
2023-01-08T19:06:45.390Z,100898.66
2023-01-08T19:09:32.353Z,100934.22
2023-01-08T19:12:19.270Z,100939.44
2023-01-08T19:15:06.160Z,100944.66
2023-01-08T19:17:53.294Z,100956.00
2023-01-08T19:20:40.218Z,100911.69
2023-01-08T19:23:27.193Z,100938.53
2023-01-08T19:26:14.230Z,100940.31
2023-01-08T19:29:04.820Z,100939.41
2023-01-08T19:31:52.904Z,100934.19
2023-01-08T19:34:39.847Z,100934.19
2023-01-08T19:37:26.744Z,100933.28
2023-01-08T19:40:13.531Z,100935.06
2023-01-08T19:42:59.548Z,100932.44
2023-01-08T19:45:46.545Z,100925.47
2023-01-08T19:48:33.590Z,100933.25
2023-01-08T19:51:26.526Z,100927.19
2023-01-08T19:54:13.928Z,100930.63
2023-01-08T19:57:00.743Z,100933.25
2023-01-08T19:59:47.800Z,100944.56
2023-01-08T20:02:34.764Z,100935.00
2023-01-08T20:05:21.708Z,100938.47
2023-01-08T20:08:12.041Z,100933.22
2023-01-08T20:10:59.220Z,100927.16
2023-01-08T20:13:46.308Z,100916.75
2023-01-08T20:16:36.049Z,100922.75
2023-01-08T20:19:23.535Z,100931.53
2023-01-08T20:22:10.425Z,100924.50
2023-01-08T20:24:58.672Z,100918.41
2023-01-08T20:27:45.624Z,100919.28
2023-01-08T20:30:32.875Z,100921.88
2023-01-08T20:33:19.835Z,100921.00
2023-01-08T20:36:06.687Z,100927.09
2023-01-08T20:38:53.546Z,100908.84
2023-01-08T20:41:46.521Z,100911.41
2023-01-08T20:44:42.686Z,100911.41
2023-01-08T20:47:29.718Z,100910.50
2023-01-08T20:50:20.188Z,100919.22
2023-01-08T20:53:08.027Z,100894.91
2023-01-08T20:55:56.573Z,100910.50
2023-01-08T20:58:43.603Z,100901.78
2023-01-08T21:01:37.179Z,100906.13
2023-01-08T21:04:27.566Z,100910.47
2023-01-08T21:07:14.603Z,100850.56
2023-01-08T21:10:01.473Z,100896.53
2023-01-08T21:12:48.397Z,100894.78
2023-01-08T21:15:35.319Z,100899.16
2023-01-08T21:18:22.123Z,100904.38
2023-01-08T21:21:09.204Z,100899.13
2023-01-08T21:23:56.262Z,100899.13
2023-01-08T21:26:43.246Z,100893.00
2023-01-08T21:29:30.370Z,100891.28
2023-01-08T21:32:17.597Z,100899.97
2023-01-08T21:35:05.444Z,100897.34
2023-01-08T21:37:52.622Z,100899.09
2023-01-08T21:40:39.519Z,100893.88
2023-01-08T21:43:24.818Z,100896.47
2023-01-08T21:46:20.130Z,100899.91
2023-01-08T21:49:09.901Z,100888.63
2023-01-08T21:51:55.682Z,100888.59
2023-01-08T21:54:42.803Z,100886.84
2023-01-08T21:57:30.012Z,100886.00
2023-01-08T22:00:16.962Z,100891.22
2023-01-08T22:03:03.850Z,100892.94
2023-01-08T22:05:51.002Z,100882.47
2023-01-08T22:08:37.929Z,100883.44
2023-01-08T22:11:29.222Z,100888.59
2023-01-08T22:14:17.509Z,100892.94
2023-01-08T22:17:04.449Z,100881.59
2023-01-08T22:19:51.851Z,100876.38
2023-01-08T22:22:39.421Z,100874.59
2023-01-08T22:25:26.811Z,100882.44
2023-01-08T22:28:13.709Z,100872.88
2023-01-08T22:31:00.589Z,100880.72
2023-01-08T22:33:47.555Z,100885.06
2023-01-08T22:36:34.572Z,100888.56
2023-01-08T22:39:21.450Z,100877.22
2023-01-08T22:42:08.382Z,100885.94
2023-01-08T22:44:55.289Z,100865.94
2023-01-08T22:47:42.257Z,100880.72
2023-01-08T22:50:29.908Z,100887.66
2023-01-08T22:53:16.902Z,100884.19
2023-01-08T22:56:08.717Z,100886.78
2023-01-08T22:58:55.573Z,100896.41
2023-01-08T23:01:45.162Z,100876.34
2023-01-08T23:04:32.167Z,100876.34
2023-01-08T23:07:19.125Z,100881.59
2023-01-08T23:10:07.515Z,100878.09
2023-01-08T23:12:54.520Z,100883.34
2023-01-08T23:15:43.734Z,100891.19
2023-01-08T23:18:30.915Z,100892.06
2023-01-08T23:21:25.352Z,100854.75
2023-01-08T23:24:12.767Z,100880.75
2023-01-08T23:26:59.823Z,100881.59
2023-01-08T23:29:49.631Z,100877.25
2023-01-08T23:32:36.641Z,100885.13
2023-01-08T23:35:24.073Z,100886.00
2023-01-08T23:38:11.432Z,100879.88
2023-01-08T23:41:02.861Z,100879.88
2023-01-08T23:43:49.894Z,100870.34
2023-01-08T23:46:37.873Z,100870.34
2023-01-08T23:49:25.572Z,100867.72
2023-01-08T23:52:12.664Z,100867.69
2023-01-08T23:54:59.622Z,100836.44
2023-01-08T23:57:47.074Z,100839.91
